• Join FlightAware (Why Join?)
  • Login
  • US Flag 
09:55PM EST


 

Airport Tracker/Info


-or-


 

Live Flight TrackerFlight Track Log ✈ KAP644 ✈ 13-Jun-2013 ✈ KBOS - KMVY

Flight Track Log - Related Links

Times and Time Zones

All times are in EDT time to prevent confusion due to time zone crossing. See the KAP644 flight status page for this flight to view local times or setup timezone preferences in your user account.

Time Position Orientation Groundspeed Altitude Reporting Facility
EDT Latitude Longitude Course Direction KTS MPH feet Rate Location/Type
08:08AM 42.3333 -71.0167 200° South 115 132 1,000  Level KA90
08:09AM 42.3000 -71.0333 200° South 118 136 1,900 720 Climbing KA90
08:10AM 42.2667 -71.0333 180° South 127 146 2,500 600 Climbing KA90
08:11AM 42.2333 -71.0333 180° South 129 148 3,100 540 Climbing KA90
08:12AM 42.2000 -71.0167 160° South 138 159 3,600 240 Climbing KA90
08:13AM 42.1500 -70.9833 154° Southeast 161 185 3,600  Level KA90
08:14AM 42.1167 -70.9667 160° South 170 196 3,600  Level KA90
08:15AM 42.0667 -70.9500 166° South 172 198 3,600  Level KA90
08:16AM 42.0372 -70.9163 140° Southeast  Level FlightAware Approximate
08:23AM 41.7918 -70.7599 161° South  Level FlightAware Approximate
08:24AM 41.7552 -70.7433 161° South  Level FlightAware Approximate
08:25AM 41.7184 -70.7277 164° South  Level FlightAware Approximate
08:26AM 41.6812 -70.7138 164° South  Level FlightAware Approximate
08:27AM 41.6440 -70.6998 164° South  Level FlightAware Approximate
08:28AM 41.6068 -70.6859 164° South  Level FlightAware Approximate
08:29AM 41.5696 -70.6719 164° South  Level FlightAware Approximate
08:30AM 41.5324 -70.6580 164° South  Level FlightAware Approximate
08:31AM 41.4953 -70.6440 164° South  Level FlightAware Approximate
08:32AM 41.4581 -70.6299 163° South  Level FlightAware Approximate
08:33AM 41.4211 -70.6151 163° South  Level FlightAware Approximate
08:34AM 41.3934 -70.6139 163° South  Level Estimated
08:35AM 41.3934 -70.6139 163° South  Level Estimated
08:36AM 41.3934 -70.6139 163° South  Level Estimated
08:37AM 41.3934 -70.6139 163° South  Level Estimated
08:38AM 41.3934 -70.6139 163° South  Level Estimated
08:39AM 41.3934 -70.6139 163° South  Level Estimated
08:40AM 41.3934 -70.6139 163° South  Level Estimated
08:41AM 41.3934 -70.6139 163° South  Level Estimated
08:42AM 41.3934 -70.6139 163° South  Level Estimated
08:43AM 41.3934 -70.6139 163° South  Level Estimated
08:44AM 41.3934 -70.6139 163° South  Level Estimated
08:45AM 41.3934 -70.6139 163° South  Level Estimated
08:46AM 41.3934 -70.6139 163° South  Level Estimated
08:47AM 41.3934 -70.6139 163° South  Level Estimated
08:48AM 41.3934 -70.6139 163° South  Level Estimated
08:49AM 41.3934 -70.6139 163° South  Level Estimated
08:50AM 41.3934 -70.6139 163° South  Level Estimated